createdAt,value
2018-09-02T00:00:26.033Z,2.0
2018-09-02T00:01:26.303Z,2.1
2018-09-02T00:02:26.283Z,2.2
2018-09-02T00:03:26.062Z,1.9
2018-09-02T00:04:26.006Z,2.1
2018-09-02T00:05:25.951Z,2.1
2018-09-02T00:06:26.296Z,2.1
2018-09-02T00:07:26.546Z,2.1
2018-09-02T00:08:26.026Z,2.1
2018-09-02T00:09:26.318Z,2.1
2018-09-02T00:10:26.000Z,2.3
2018-09-02T00:11:25.992Z,1.9
2018-09-02T00:12:26.300Z,2.0
2018-09-02T00:13:25.980Z,2.0
2018-09-02T00:14:26.063Z,2.2
2018-09-02T00:15:26.056Z,2.0
2018-09-02T00:16:26.509Z,2.0
2018-09-02T00:17:26.067Z,2.0
2018-09-02T00:18:26.033Z,2.2
2018-09-02T00:19:26.130Z,2.0
2018-09-02T00:20:26.056Z,1.9
2018-09-02T00:21:26.366Z,1.9
2018-09-02T00:22:26.032Z,2.2
2018-09-02T00:23:26.133Z,2.2
2018-09-02T00:24:26.410Z,2.0
2018-09-02T00:25:27.601Z,2.0
2018-09-02T00:26:26.310Z,2.1
2018-09-02T00:27:26.025Z,2.0
2018-09-02T00:28:26.297Z,2.1
2018-09-02T00:29:26.044Z,2.2
2018-09-02T00:30:26.081Z,2.2
2018-09-02T00:31:26.064Z,2.0
2018-09-02T00:32:26.101Z,1.9
2018-09-02T00:33:26.362Z,2.1
2018-09-02T00:34:26.317Z,1.8
2018-09-02T00:35:42.200Z,2.0
2018-09-02T00:36:26.171Z,1.9
2018-09-02T00:37:26.460Z,2.0
2018-09-02T00:38:26.051Z,1.8
2018-09-02T00:39:26.096Z,2.0
2018-09-02T00:40:26.053Z,2.0
2018-09-02T00:41:26.355Z,2.1
2018-09-02T00:42:26.124Z,2.0
2018-09-02T00:43:26.336Z,2.0
2018-09-02T00:44:26.128Z,2.2
2018-09-02T00:45:26.412Z,2.0
2018-09-02T00:47:38.547Z,1.9
2018-09-02T00:48:38.614Z,1.9
2018-09-02T00:49:38.944Z,1.9
2018-09-02T00:50:38.596Z,2.1
2018-09-02T00:51:38.545Z,1.9
2018-09-02T00:52:38.906Z,2.0
2018-09-02T00:53:38.580Z,2.0
2018-09-02T00:54:38.871Z,2.1
2018-09-02T00:55:38.654Z,2.2
2018-09-02T00:56:38.647Z,2.1
2018-09-02T00:57:39.271Z,2.1
2018-09-02T00:58:38.810Z,2.0
2018-09-02T00:59:38.650Z,2.0
2018-09-02T01:00:38.648Z,2.0
2018-09-02T01:01:38.920Z,2.0
2018-09-02T01:02:38.589Z,2.0
2018-09-02T01:03:38.583Z,1.7
2018-09-02T01:04:38.576Z,2.1
2018-09-02T01:05:38.877Z,1.8
2018-09-02T01:06:39.000Z,2.0
2018-09-02T01:07:40.852Z,1.9
2018-09-02T01:08:38.609Z,1.9
2018-09-02T01:09:38.575Z,2.2
2018-09-02T01:10:38.604Z,1.9
2018-09-02T01:11:38.647Z,1.9
2018-09-02T01:12:38.943Z,1.7
2018-09-02T01:13:38.946Z,2.0
2018-09-02T01:14:38.655Z,2.0
2018-09-02T01:15:38.676Z,1.9
2018-09-02T01:16:38.643Z,2.1
2018-09-02T01:27:26.536Z,2.1
2018-09-02T01:27:35.774Z,2.3
2018-09-02T01:28:35.911Z,2.1
2018-09-02T01:29:35.822Z,2.1
2018-09-02T01:30:36.046Z,2.0
2018-09-02T01:31:36.029Z,2.1
2018-09-02T01:32:35.794Z,1.9
2018-09-02T01:33:35.774Z,2.0
2018-09-02T01:34:35.758Z,2.0
2018-09-02T01:35:35.862Z,2.0
2018-09-02T01:37:48.564Z,2.3
2018-09-02T01:38:48.551Z,2.1
2018-09-02T01:39:48.856Z,1.9
2018-09-02T01:40:48.477Z,1.8
2018-09-02T01:41:48.822Z,1.7
2018-09-02T01:42:48.485Z,2.0
2018-09-02T01:43:49.170Z,1.9
2018-09-02T01:44:48.901Z,1.9
2018-09-02T01:45:48.799Z,1.9
2018-09-02T01:46:48.616Z,1.9
2018-09-02T01:47:48.845Z,2.0
2018-09-02T01:48:48.566Z,1.8
2018-09-02T01:49:48.567Z,1.7
2018-09-02T01:50:48.519Z,1.8
2018-09-02T01:51:48.566Z,2.1
2018-09-02T01:52:48.882Z,1.9
2018-09-02T01:53:48.528Z,2.0
2018-09-02T01:54:48.820Z,2.0
2018-09-02T01:55:48.608Z,1.8
2018-09-02T01:56:48.619Z,1.9
2018-09-02T01:57:48.838Z,1.9
2018-09-02T01:58:48.582Z,2.0
2018-09-02T01:59:48.565Z,2.0
2018-09-02T02:00:48.766Z,2.3
2018-09-02T02:01:48.856Z,2.1
2018-09-02T02:02:48.529Z,2.0
2018-09-02T02:03:48.918Z,2.1
2018-09-02T02:04:49.247Z,2.2
2018-09-02T02:05:48.545Z,1.9
2018-09-02T02:06:48.604Z,2.1
2018-09-02T02:07:48.568Z,2.1
2018-09-02T02:08:48.546Z,2.1
2018-09-02T02:09:48.604Z,1.9
2018-09-02T02:10:48.867Z,2.1
2018-09-02T02:11:48.556Z,2.1
2018-09-02T02:12:48.688Z,1.9
2018-09-02T02:13:49.142Z,1.9
2018-09-02T02:15:48.590Z,2.0
2018-09-02T02:16:48.533Z,2.1
2018-09-02T02:17:49.268Z,1.9
2018-09-02T02:18:48.692Z,1.9
2018-09-02T02:19:48.584Z,2.0
2018-09-02T02:20:49.005Z,2.0
2018-09-02T02:21:48.606Z,2.2
2018-09-02T02:22:49.361Z,2.0
2018-09-02T02:23:48.901Z,2.1
2018-09-02T02:24:48.537Z,2.0
2018-09-02T02:25:48.577Z,2.1
2018-09-02T02:26:48.841Z,2.1
2018-09-02T02:27:48.654Z,2.3
2018-09-02T02:28:48.628Z,2.2
2018-09-02T02:29:49.321Z,1.9
2018-09-02T02:30:49.223Z,2.1
2018-09-02T02:40:00.887Z,2.1
2018-09-02T02:40:12.273Z,1.9
2018-09-02T02:41:09.226Z,2.0
2018-09-02T02:42:09.121Z,2.1
2018-09-02T02:43:09.359Z,2.0
2018-09-02T02:44:09.208Z,2.2
2018-09-02T02:45:09.469Z,2.2
2018-09-02T02:46:09.128Z,2.0
2018-09-02T02:48:09.670Z,2.1
2018-09-02T02:49:09.181Z,1.9
2018-09-02T02:50:09.177Z,1.8
2018-09-02T02:51:09.389Z,2.3
2018-09-02T02:52:09.129Z,2.2
2018-09-02T02:53:10.294Z,2.0
2018-09-02T02:54:09.854Z,2.1
2018-09-02T02:55:10.110Z,2.1
2018-09-02T02:56:09.126Z,1.9
2018-09-02T02:57:10.443Z,2.3
2018-09-02T02:58:09.188Z,1.9
2018-09-02T02:59:09.472Z,2.6
2018-09-02T03:00:09.184Z,2.2
2018-09-02T03:01:09.173Z,2.2
2018-09-02T03:02:09.986Z,2.3
2018-09-02T03:03:09.979Z,2.3
2018-09-02T03:04:09.298Z,2.2
2018-09-02T03:05:09.406Z,2.2
2018-09-02T03:06:37.605Z,2.1
2018-09-02T03:07:09.189Z,2.2
2018-09-02T03:09:09.189Z,2.2
2018-09-02T03:10:09.189Z,2.4
2018-09-02T03:11:10.448Z,2.0
2018-09-02T03:12:10.293Z,2.1
2018-09-02T03:13:09.455Z,2.2
2018-09-02T03:14:09.213Z,2.2
2018-09-02T03:15:09.510Z,2.3
2018-09-02T03:16:09.236Z,2.1
2018-09-02T03:17:10.721Z,2.1
2018-09-02T03:18:09.196Z,2.2
2018-09-02T03:19:09.174Z,2.3
2018-09-02T03:20:09.506Z,2.1
2018-09-02T03:21:09.153Z,2.5
2018-09-02T03:22:09.164Z,2.1
2018-09-02T03:23:09.213Z,2.4
2018-09-02T03:24:09.174Z,2.1
2018-09-02T03:25:09.211Z,2.3
2018-09-02T03:26:09.465Z,2.3
2018-09-02T03:27:09.269Z,2.1
2018-09-02T03:28:09.255Z,2.4
2018-09-02T03:29:09.237Z,2.2
2018-09-02T03:30:09.276Z,2.1
2018-09-02T03:31:10.198Z,2.2
2018-09-02T03:32:09.243Z,2.1
2018-09-02T03:33:10.077Z,2.1
2018-09-02T03:35:11.592Z,2.3
2018-09-02T03:36:09.528Z,2.3
2018-09-02T03:37:09.278Z,2.3
2018-09-02T03:38:09.263Z,2.1
2018-09-02T03:39:09.239Z,2.4
2018-09-02T03:40:09.501Z,2.2
2018-09-02T03:41:09.193Z,2.2
2018-09-02T03:42:09.397Z,2.3
2018-09-02T03:43:09.521Z,2.3
2018-09-02T03:44:09.348Z,2.3
2018-09-02T03:45:09.845Z,2.5
2018-09-02T03:46:09.438Z,2.5
2018-09-02T03:47:09.257Z,2.1
2018-09-02T03:48:09.499Z,2.4
2018-09-02T03:49:09.460Z,2.1
2018-09-02T03:50:09.195Z,2.2
2018-09-02T03:51:09.144Z,2.3
2018-09-02T03:52:09.480Z,2.2
2018-09-02T03:54:10.212Z,2.3
2018-09-02T03:55:09.963Z,2.4
2018-09-02T03:56:09.269Z,2.2
2018-09-02T03:57:10.259Z,2.2
2018-09-02T03:59:09.865Z,2.2
2018-09-02T04:00:09.547Z,2.1
2018-09-02T04:01:09.332Z,2.3
2018-09-02T04:02:09.306Z,2.2
2018-09-02T04:03:09.200Z,2.0
2018-09-02T04:05:22.914Z,2.2
2018-09-02T04:06:21.561Z,2.3
2018-09-02T04:07:22.923Z,2.2
2018-09-02T04:08:21.606Z,2.2
2018-09-02T04:09:21.600Z,2.1
2018-09-02T04:10:23.300Z,2.7
2018-09-02T04:11:22.447Z,2.0
2018-09-02T04:12:22.412Z,2.0
2018-09-02T04:13:21.661Z,2.4
2018-09-02T04:14:21.681Z,2.4
2018-09-02T04:15:23.030Z,2.3
2018-09-02T04:16:21.893Z,2.2
2018-09-02T04:17:21.555Z,2.2
2018-09-02T04:18:21.580Z,2.4
2018-09-02T04:19:22.134Z,2.1
2018-09-02T04:20:21.589Z,2.4
2018-09-02T04:21:21.637Z,2.3
2018-09-02T04:22:22.320Z,2.3
2018-09-02T04:23:21.665Z,2.2
2018-09-02T04:24:21.647Z,2.3
2018-09-02T04:25:22.305Z,2.4
2018-09-02T04:26:23.628Z,2.3
2018-09-02T04:27:22.942Z,2.3
2018-09-02T04:28:21.662Z,2.3
2018-09-02T04:29:22.228Z,2.2
2018-09-02T04:30:21.736Z,2.2
2018-09-02T04:32:21.720Z,2.4
2018-09-02T04:33:21.730Z,2.4
2018-09-02T04:34:21.659Z,2.4
2018-09-02T04:35:21.980Z,2.1
2018-09-02T04:36:21.695Z,2.4
2018-09-02T04:37:21.718Z,2.3
2018-09-02T04:38:21.583Z,2.3
2018-09-02T04:39:21.696Z,2.3
2018-09-02T04:40:21.758Z,2.1
2018-09-02T04:41:21.700Z,2.3
2018-09-02T04:42:21.720Z,2.0
2018-09-02T04:43:21.635Z,2.4
2018-09-02T04:44:21.776Z,2.1
2018-09-02T04:45:21.804Z,2.2
2018-09-02T04:46:22.349Z,2.4
2018-09-02T04:47:21.762Z,2.2
2018-09-02T04:48:21.787Z,2.2
2018-09-02T04:49:21.744Z,2.2
2018-09-02T04:50:22.990Z,2.4
2018-09-02T04:51:22.282Z,2.3
2018-09-02T04:52:21.679Z,2.2
2018-09-02T04:53:21.735Z,2.0
2018-09-02T04:54:21.866Z,2.3
2018-09-02T04:55:21.800Z,2.4
2018-09-02T04:56:21.669Z,2.2
2018-09-02T04:57:21.741Z,2.5
2018-09-02T04:58:22.326Z,2.2
2018-09-02T04:59:21.720Z,2.2
2018-09-02T05:00:21.760Z,2.4
2018-09-02T05:01:21.724Z,2.2
2018-09-02T05:02:22.424Z,2.4
2018-09-02T05:03:23.251Z,2.3
2018-09-02T05:05:21.702Z,2.4
2018-09-02T05:06:22.471Z,2.1
2018-09-02T05:07:21.753Z,2.2
2018-09-02T05:08:23.495Z,2.2
2018-09-02T05:09:23.850Z,2.4
2018-09-02T05:10:22.669Z,2.2
2018-09-02T05:11:21.724Z,2.2
2018-09-02T05:12:22.271Z,2.2
2018-09-02T05:13:21.984Z,2.5
2018-09-02T05:14:21.773Z,2.2
2018-09-02T05:15:22.473Z,2.4
2018-09-02T05:16:22.000Z,2.3
2018-09-02T05:17:22.421Z,2.6
2018-09-02T05:19:26.175Z,2.3
2018-09-02T05:20:22.276Z,2.3
2018-09-02T05:21:21.813Z,2.4
2018-09-02T05:22:22.028Z,2.3
2018-09-02T05:23:22.186Z,2.2
2018-09-02T05:24:22.045Z,2.2
2018-09-02T05:25:23.152Z,2.4
2018-09-02T05:26:22.071Z,2.2
2018-09-02T05:28:22.485Z,2.1
2018-09-02T05:29:24.142Z,2.3
2018-09-02T05:30:21.839Z,2.4
2018-09-02T05:31:22.792Z,2.1
2018-09-02T05:32:22.318Z,2.4
2018-09-02T05:33:21.780Z,2.2
2018-09-02T05:34:21.818Z,2.6
2018-09-02T05:35:21.823Z,2.4
2018-09-02T05:36:21.868Z,2.3
2018-09-02T05:37:21.888Z,2.2
2018-09-02T05:38:22.074Z,2.4
2018-09-02T05:39:21.869Z,2.4
2018-09-02T05:40:21.828Z,2.0
2018-09-02T05:41:22.071Z,2.2
2018-09-02T05:42:22.281Z,2.3
2018-09-02T05:43:21.836Z,2.4
2018-09-02T05:44:21.698Z,2.5
2018-09-02T05:45:21.788Z,2.2
2018-09-02T05:46:22.844Z,2.3
2018-09-02T05:47:22.128Z,2.3
2018-09-02T05:48:22.829Z,2.3
2018-09-02T05:49:21.913Z,2.2
2018-09-02T05:51:21.836Z,2.6
2018-09-02T05:52:21.852Z,2.4
2018-09-02T05:53:22.098Z,2.1
2018-09-02T05:54:21.907Z,2.5
2018-09-02T05:55:21.922Z,2.2
2018-09-02T05:56:21.886Z,2.5
2018-09-02T05:57:21.981Z,2.3
2018-09-02T05:58:22.366Z,2.4
2018-09-02T05:59:22.484Z,2.1
2018-09-02T06:00:22.523Z,2.2
2018-09-02T06:01:22.785Z,2.4
2018-09-02T06:02:21.864Z,2.3
2018-09-02T06:03:21.910Z,2.3
2018-09-02T06:04:21.951Z,2.4
2018-09-02T06:05:22.459Z,2.3
2018-09-02T06:06:21.888Z,2.2
2018-09-02T06:07:22.452Z,2.4
2018-09-02T06:08:21.849Z,2.3
2018-09-02T06:09:21.954Z,2.3
2018-09-02T06:10:22.194Z,2.3
2018-09-02T06:11:21.868Z,2.4
2018-09-02T06:12:22.491Z,2.1
2018-09-02T06:13:22.176Z,2.3
2018-09-02T06:14:21.864Z,2.5
2018-09-02T06:15:23.101Z,2.4
2018-09-02T06:16:22.137Z,2.8
2018-09-02T06:17:38.753Z,2.6
2018-09-02T06:18:22.563Z,2.3
2018-09-02T06:19:21.891Z,2.7
2018-09-02T06:20:21.856Z,2.4
2018-09-02T06:21:22.234Z,2.6
2018-09-02T06:22:21.937Z,2.7
2018-09-02T06:23:25.010Z,2.7
2018-09-02T06:24:23.934Z,2.7
2018-09-02T06:25:24.571Z,2.8
2018-09-02T06:26:27.073Z,2.9
2018-09-02T06:27:23.887Z,3.0
2018-09-02T06:28:23.007Z,2.9
2018-09-02T06:29:22.693Z,3.0
2018-09-02T06:30:22.058Z,2.8
2018-09-02T06:31:23.950Z,2.9
2018-09-02T06:33:25.553Z,2.7
2018-09-02T06:34:23.888Z,2.8
2018-09-02T06:36:24.955Z,2.7
2018-09-02T06:37:22.683Z,2.9
2018-09-02T06:39:22.817Z,2.9
2018-09-02T06:40:22.610Z,2.8
2018-09-02T06:41:28.184Z,2.7
2018-09-02T06:42:21.920Z,2.9
2018-09-02T06:43:23.567Z,2.9
2018-09-02T06:44:22.155Z,2.9
2018-09-02T06:45:22.347Z,3.0
2018-09-02T06:46:22.159Z,2.6
2018-09-02T06:47:22.138Z,2.7
2018-09-02T06:48:22.095Z,2.8
2018-09-02T06:49:22.137Z,2.8
2018-09-02T06:50:22.348Z,2.6
2018-09-02T06:51:23.359Z,2.9
2018-09-02T06:52:22.935Z,2.9
2018-09-02T06:53:23.927Z,2.8
2018-09-02T06:54:23.471Z,2.7
2018-09-02T06:55:23.477Z,2.6
2018-09-02T06:56:22.810Z,3.0
2018-09-02T06:57:24.593Z,2.8
2018-09-02T06:58:22.354Z,2.7
2018-09-02T06:59:22.082Z,2.6
2018-09-02T07:00:22.693Z,2.8
2018-09-02T07:01:23.311Z,2.7
2018-09-02T07:02:22.998Z,2.7
2018-09-02T07:03:50.218Z,2.8
2018-09-02T07:04:23.061Z,2.9
2018-09-02T07:05:22.986Z,2.5
2018-09-02T07:06:25.657Z,2.5
2018-09-02T07:07:22.183Z,2.9
2018-09-02T07:08:22.449Z,2.7
2018-09-02T07:09:22.109Z,2.8
2018-09-02T07:10:22.059Z,2.6
2018-09-02T07:11:22.241Z,2.8
2018-09-02T07:12:22.160Z,2.8
2018-09-02T07:13:23.262Z,2.7
2018-09-02T07:14:22.789Z,2.9
2018-09-02T07:16:22.272Z,2.7
2018-09-02T07:17:22.021Z,2.6
2018-09-02T07:18:21.986Z,2.9
2018-09-02T07:19:22.136Z,2.7
2018-09-02T07:20:22.052Z,2.8
2018-09-02T07:21:21.937Z,2.6
2018-09-02T07:22:22.287Z,2.7
2018-09-02T07:23:22.088Z,2.8
2018-09-02T07:25:21.998Z,2.5
2018-09-02T07:26:22.292Z,2.9
2018-09-02T07:27:22.272Z,2.6
2018-09-02T07:28:22.084Z,2.8
2018-09-02T07:29:22.082Z,2.7
2018-09-02T07:30:21.901Z,2.9
2018-09-02T07:31:22.031Z,2.6
2018-09-02T07:32:22.285Z,2.7
2018-09-02T07:33:22.017Z,2.7
2018-09-02T07:34:21.980Z,2.7
2018-09-02T07:35:21.920Z,2.8
2018-09-02T07:36:21.909Z,2.9
2018-09-02T07:37:22.195Z,4.2
2018-09-02T07:38:22.116Z,4.9
2018-09-02T07:39:22.403Z,4.8
2018-09-02T07:40:21.940Z,5.7
2018-09-02T07:41:22.009Z,5.4
2018-09-02T07:42:21.951Z,5.3
2018-09-02T07:43:21.959Z,5.2
2018-09-02T07:44:23.562Z,5.0
2018-09-02T07:45:22.276Z,5.1
2018-09-02T07:46:22.272Z,4.7
2018-09-02T07:47:22.266Z,4.9
2018-09-02T07:48:21.949Z,4.5
2018-09-02T07:49:21.969Z,3.9
2018-09-02T07:50:22.601Z,3.9
2018-09-02T07:51:29.529Z,3.9
2018-09-02T07:52:26.239Z,3.5
2018-09-02T07:53:23.417Z,3.9
2018-09-02T07:54:24.420Z,3.6
2018-09-02T07:55:24.519Z,3.5
2018-09-02T07:56:22.828Z,4.3
2018-09-02T07:57:37.830Z,3.3
2018-09-02T07:58:34.944Z,3.9
2018-09-02T08:00:14.701Z,3.6
2018-09-02T08:00:24.942Z,3.6
2018-09-02T08:01:23.692Z,3.1
2018-09-02T08:02:23.263Z,3.3
2018-09-02T08:03:23.089Z,3.1
2018-09-02T08:04:23.621Z,3.1
2018-09-02T08:05:23.239Z,3.1
2018-09-02T08:06:23.911Z,3.2
2018-09-02T08:07:26.114Z,3.4
2018-09-02T08:08:25.080Z,3.3
2018-09-02T08:11:40.145Z,3.2
2018-09-02T08:12:38.255Z,3.0
2018-09-02T08:13:37.807Z,3.2
2018-09-02T08:14:35.921Z,3.0
2018-09-02T08:15:38.725Z,3.0
2018-09-02T08:16:35.698Z,2.8
2018-09-02T08:17:38.855Z,2.8
2018-09-02T08:18:36.505Z,2.9
2018-09-02T08:19:35.706Z,2.9
2018-09-02T08:20:35.741Z,3.1
2018-09-02T08:21:51.806Z,2.8
2018-09-02T08:22:35.665Z,2.9
2018-09-02T08:23:36.070Z,3.0
2018-09-02T08:24:36.075Z,2.7
2018-09-02T08:25:36.008Z,2.7
2018-09-02T08:26:35.739Z,2.9
2018-09-02T08:27:35.860Z,2.8
2018-09-02T08:28:35.945Z,2.8
2018-09-02T08:29:35.668Z,2.9
2018-09-02T08:30:35.727Z,2.6
2018-09-02T08:33:44.747Z,2.4
2018-09-02T08:34:45.663Z,2.8
2018-09-02T08:35:45.520Z,2.9
2018-09-02T08:36:45.675Z,5.3
2018-09-02T08:37:45.697Z,14.5
2018-09-02T08:38:45.737Z,21.3
2018-09-02T08:39:45.696Z,25.4
2018-09-02T08:40:45.679Z,30.3
2018-09-02T08:41:45.692Z,28.6
2018-09-02T08:42:45.770Z,34.2
2018-09-02T08:44:58.888Z,26.8
2018-09-02T08:45:58.799Z,25.3
2018-09-02T08:46:59.125Z,39.5
2018-09-02T08:47:58.799Z,37.3
2018-09-02T08:48:58.725Z,50.6
2018-09-02T08:49:58.783Z,61.0
2018-09-02T08:50:58.754Z,82.5
2018-09-02T08:51:58.867Z,74.3
2018-09-02T08:52:58.735Z,60.7
2018-09-02T08:53:58.776Z,53.4
2018-09-02T09:06:02.978Z,33.5
2018-09-02T09:07:02.775Z,31.9
2018-09-02T09:08:04.198Z,31.4
2018-09-02T09:10:05.434Z,29.4
2018-09-02T09:11:06.072Z,28.0
2018-09-02T09:13:04.780Z,26.1
2018-09-02T09:14:05.289Z,23.7
2018-09-02T09:15:06.182Z,25.0
2018-09-02T09:16:31.192Z,22.4
2018-09-02T09:17:02.641Z,21.6
2018-09-02T09:18:02.661Z,20.5
2018-09-02T09:19:02.662Z,18.3
2018-09-02T09:20:02.969Z,18.2
2018-09-02T09:21:02.648Z,17.3
2018-09-02T09:22:02.966Z,18.7
2018-09-02T09:23:02.674Z,17.4
2018-09-02T09:24:02.847Z,17.0
2018-09-02T09:25:02.710Z,16.3
2018-09-02T09:26:02.711Z,16.8
2018-09-02T09:27:02.936Z,16.2
2018-09-02T09:28:02.722Z,15.8
2018-09-02T09:29:02.904Z,17.6
2018-09-02T09:30:02.733Z,18.6
2018-09-02T09:31:02.927Z,20.3
2018-09-02T09:32:02.959Z,32.5
2018-09-02T09:33:03.021Z,23.9
2018-09-02T09:34:03.035Z,22.8
2018-09-02T09:35:02.680Z,20.8
2018-09-02T09:36:02.991Z,19.3
2018-09-02T09:37:02.727Z,22.3
2018-09-02T09:38:02.647Z,20.7
2018-09-02T09:39:02.687Z,22.1
2018-09-02T09:40:02.783Z,24.4
2018-09-02T09:41:03.003Z,23.3
2018-09-02T09:42:02.973Z,25.5
2018-09-02T09:43:02.925Z,27.4
2018-09-02T09:44:02.682Z,37.0
2018-09-02T09:45:12.824Z,64.4
2018-09-02T09:46:03.030Z,58.9
2018-09-02T09:47:02.802Z,50.3
2018-09-02T09:48:02.967Z,44.0
2018-09-02T09:49:02.767Z,43.8
2018-09-02T09:50:02.758Z,43.0
2018-09-02T09:51:02.736Z,38.5
2018-09-02T09:52:02.817Z,36.3
2018-09-02T09:53:03.089Z,35.8
2018-09-02T09:54:02.756Z,34.0
2018-09-02T09:55:03.007Z,32.6
2018-09-02T09:56:02.715Z,33.2
2018-09-02T09:57:02.644Z,39.8
2018-09-02T09:58:02.764Z,39.5
2018-09-02T09:59:02.730Z,42.2
2018-09-02T10:00:02.740Z,41.3
2018-09-02T10:01:02.752Z,58.7
2018-09-02T10:02:06.736Z,50.1
2018-09-02T10:03:02.943Z,84.2
2018-09-02T10:04:03.423Z,62.3
2018-09-02T10:05:02.732Z,55.7
2018-09-02T10:06:02.974Z,51.6
2018-09-02T10:07:03.053Z,53.4
2018-09-02T10:08:03.099Z,54.0
2018-09-02T10:09:03.005Z,49.8
2018-09-02T10:10:02.801Z,48.4
2018-09-02T10:11:02.776Z,45.9
2018-09-02T10:12:03.032Z,43.4
2018-09-02T10:13:03.042Z,50.7
2018-09-02T10:18:25.577Z,46.9
2018-09-02T10:18:39.006Z,40.7
2018-09-02T10:19:39.806Z,41.9
2018-09-02T10:20:39.915Z,38.1
2018-09-02T10:21:39.890Z,40.1
2018-09-02T10:22:40.095Z,37.5
2018-09-02T10:23:39.902Z,35.5
2018-09-02T10:24:39.852Z,34.0
2018-09-02T10:25:39.991Z,34.2
2018-09-02T10:27:52.432Z,30.6
2018-09-02T10:28:53.884Z,30.2
2018-09-02T10:29:52.705Z,30.3
2018-09-02T10:30:52.456Z,29.5
2018-09-02T10:31:52.469Z,29.0
2018-09-02T10:32:53.137Z,27.4
2018-09-02T10:33:53.306Z,27.4
2018-09-02T10:35:52.440Z,25.8
2018-09-02T10:36:52.576Z,25.4
2018-09-02T10:47:42.192Z,24.4
2018-09-02T10:47:53.771Z,19.7
2018-09-02T10:48:50.569Z,19.9
2018-09-02T10:49:51.612Z,19.0
2018-09-02T10:50:50.902Z,18.0
2018-09-02T10:51:50.549Z,18.1
2018-09-02T10:52:50.519Z,17.9
2018-09-02T10:53:50.549Z,17.2
2018-09-02T10:54:50.504Z,17.1
2018-09-02T10:55:50.791Z,15.8
2018-09-02T10:58:03.825Z,15.9
2018-09-02T10:59:03.030Z,14.9
2018-09-02T11:00:03.163Z,14.8
2018-09-02T11:01:03.361Z,14.3
2018-09-02T11:02:03.067Z,14.1
2018-09-02T11:03:07.869Z,14.1
2018-09-02T11:04:03.116Z,13.2
2018-09-02T11:05:03.088Z,13.2
2018-09-02T11:06:03.136Z,13.3
2018-09-02T11:07:03.421Z,12.0
2018-09-02T11:08:13.252Z,12.2
2018-09-02T11:09:03.132Z,12.2
2018-09-02T11:10:03.738Z,12.0
2018-09-02T11:11:03.144Z,12.0
2018-09-02T11:12:03.082Z,11.9
2018-09-02T11:13:03.180Z,11.9
2018-09-02T11:14:03.198Z,11.8
2018-09-02T11:15:03.124Z,11.6
2018-09-02T11:16:03.400Z,11.6
2018-09-02T11:17:03.111Z,11.9
2018-09-02T11:20:07.113Z,10.4
2018-09-02T11:21:07.019Z,9.8
2018-09-02T11:22:07.292Z,10.4
2018-09-02T11:23:07.219Z,9.4
2018-09-02T11:24:07.071Z,9.7
2018-09-02T11:25:07.120Z,9.0
2018-09-02T11:26:06.989Z,8.4
2018-09-02T11:27:07.059Z,8.8
2018-09-02T11:28:07.027Z,8.6
2018-09-02T11:29:07.034Z,8.8
2018-09-02T11:30:08.588Z,7.9
2018-09-02T11:31:07.095Z,7.7
2018-09-02T11:32:07.133Z,8.1
2018-09-02T11:33:07.397Z,7.8
2018-09-02T11:34:07.086Z,7.8
2018-09-02T11:35:07.290Z,8.4
2018-09-02T11:36:07.103Z,8.2
2018-09-02T11:37:07.298Z,7.9
2018-09-02T11:38:06.978Z,7.6
2018-09-02T11:39:07.303Z,7.6
2018-09-02T11:40:07.491Z,7.5
2018-09-02T11:41:07.054Z,7.4
2018-09-02T11:42:07.162Z,7.8
2018-09-02T11:43:07.056Z,7.0
2018-09-02T11:44:07.052Z,7.0
2018-09-02T11:45:07.079Z,6.9
2018-09-02T11:46:07.336Z,7.0
2018-09-02T11:47:07.400Z,6.9
2018-09-02T11:48:07.069Z,7.2
2018-09-02T11:49:07.086Z,6.7
2018-09-02T11:59:54.922Z,7.2
2018-09-02T12:00:21.364Z,6.3
2018-09-02T12:01:22.148Z,6.0
2018-09-02T12:02:22.445Z,6.1
2018-09-02T12:03:22.204Z,6.2
2018-09-02T12:04:22.427Z,5.9
2018-09-02T12:05:22.137Z,5.7
2018-09-02T12:06:22.124Z,6.0
2018-09-02T12:07:22.181Z,5.8
2018-09-02T12:08:22.488Z,5.3
2018-09-02T12:09:22.204Z,5.8
2018-09-02T12:10:22.115Z,5.7
2018-09-02T12:11:22.166Z,5.7
2018-09-02T12:12:22.173Z,5.9
2018-09-02T12:13:22.168Z,5.3
2018-09-02T12:14:22.203Z,5.3
2018-09-02T12:15:22.173Z,5.2
2018-09-02T12:24:33.078Z,5.2
2018-09-02T12:24:44.413Z,4.7
2018-09-02T12:25:44.412Z,4.8
2018-09-02T12:26:46.553Z,4.4
2018-09-02T12:27:44.657Z,4.6
2018-09-02T12:28:44.431Z,4.1
2018-09-02T12:29:44.479Z,4.3
2018-09-02T12:30:44.450Z,4.3
2018-09-02T12:31:44.788Z,4.4
2018-09-02T12:32:44.668Z,4.3
2018-09-02T12:33:44.492Z,4.3
2018-09-02T12:34:44.436Z,3.8
2018-09-02T12:35:45.090Z,4.1
2018-09-02T12:36:44.477Z,3.9
2018-09-02T12:37:44.355Z,3.8
2018-09-02T12:38:44.397Z,4.2
2018-09-02T12:39:44.388Z,4.2
2018-09-02T12:40:44.474Z,4.2
2018-09-02T12:41:44.473Z,4.1
2018-09-02T12:42:44.520Z,3.7
2018-09-02T12:43:44.461Z,4.0
2018-09-02T12:44:44.755Z,3.9
2018-09-02T12:45:44.671Z,4.2
2018-09-02T12:46:44.722Z,3.5
2018-09-02T12:47:45.241Z,3.5
2018-09-02T12:48:44.720Z,3.8
2018-09-02T12:49:44.462Z,3.9
2018-09-02T13:00:32.685Z,3.7
2018-09-02T13:01:32.587Z,3.7
2018-09-02T13:02:32.842Z,3.7
2018-09-02T13:03:33.112Z,3.6
2018-09-02T13:04:32.520Z,3.6
2018-09-02T13:05:32.600Z,3.6
2018-09-02T13:06:32.577Z,3.6
2018-09-02T13:07:32.559Z,3.6
2018-09-02T13:08:32.550Z,3.4
2018-09-02T13:09:32.622Z,3.6
2018-09-02T13:10:32.646Z,3.9
2018-09-02T13:11:32.484Z,3.4
2018-09-02T13:12:32.676Z,3.5
2018-09-02T13:14:32.509Z,3.9
2018-09-02T13:15:33.437Z,3.6
2018-09-02T13:16:32.542Z,3.3
2018-09-02T13:17:32.535Z,3.5
2018-09-02T13:18:35.344Z,3.4
2018-09-02T13:19:34.205Z,3.4
2018-09-02T13:20:33.313Z,3.4
2018-09-02T13:21:32.612Z,3.3
2018-09-02T13:22:32.684Z,3.1
2018-09-02T13:23:32.575Z,3.3
2018-09-02T13:24:34.130Z,3.4
2018-09-02T13:26:33.167Z,3.3
2018-09-02T13:27:32.498Z,3.2
2018-09-02T13:28:32.554Z,3.5
2018-09-02T13:30:33.162Z,3.2
2018-09-02T13:31:32.676Z,3.3
2018-09-02T13:32:33.631Z,3.2
2018-09-02T13:33:32.866Z,3.2
2018-09-02T13:34:32.688Z,3.3
2018-09-02T13:35:32.587Z,3.3
2018-09-02T13:36:32.556Z,3.4
2018-09-02T13:37:32.566Z,3.4
2018-09-02T13:38:32.649Z,3.2
2018-09-02T13:39:32.626Z,3.1
2018-09-02T13:42:13.991Z,3.4
2018-09-02T13:42:27.221Z,3.2
2018-09-02T13:43:28.548Z,3.0
2018-09-02T13:44:28.284Z,3.2
2018-09-02T13:45:28.238Z,3.1
2018-09-02T13:46:28.218Z,3.1
2018-09-02T13:47:29.208Z,3.1
2018-09-02T13:48:29.551Z,2.9
2018-09-02T13:49:28.499Z,3.2
2018-09-02T13:50:28.213Z,3.6
2018-09-02T13:52:40.834Z,3.1
2018-09-02T13:53:41.263Z,3.2
2018-09-02T13:54:41.151Z,3.1
2018-09-02T13:55:41.464Z,3.0
2018-09-02T13:56:40.848Z,3.1
2018-09-02T13:57:40.902Z,2.8
2018-09-02T13:58:40.983Z,3.1
2018-09-02T13:59:41.033Z,3.1
2018-09-02T14:00:40.869Z,2.9
2018-09-02T14:01:41.619Z,2.8
2018-09-02T14:02:41.618Z,3.0
2018-09-02T14:03:41.107Z,3.0
2018-09-02T14:04:40.929Z,2.8
2018-09-02T14:05:40.949Z,2.8
2018-09-02T14:06:41.441Z,2.8
2018-09-02T14:07:42.760Z,2.9
2018-09-02T14:08:40.875Z,2.9
2018-09-02T14:09:40.802Z,2.8
2018-09-02T14:12:21.884Z,2.7
2018-09-02T14:12:31.083Z,2.9
2018-09-02T14:13:31.115Z,2.9
2018-09-02T14:14:31.113Z,2.9
2018-09-02T14:15:31.214Z,2.9
2018-09-02T14:16:31.174Z,3.1
2018-09-02T14:17:31.207Z,2.8
2018-09-02T14:18:31.132Z,2.8
2018-09-02T14:19:31.170Z,2.9
2018-09-02T14:20:31.454Z,3.0
2018-09-02T14:21:32.310Z,2.7
2018-09-02T14:22:31.427Z,2.8
2018-09-02T14:23:31.168Z,2.8
2018-09-02T14:24:31.246Z,3.0
2018-09-02T14:25:31.776Z,3.2
2018-09-02T14:26:32.935Z,3.0
2018-09-02T14:27:31.531Z,3.0
2018-09-02T14:28:31.601Z,2.5
2018-09-02T14:29:32.138Z,2.7
2018-09-02T14:30:31.218Z,3.1
2018-09-02T14:31:31.207Z,3.4
2018-09-02T14:32:31.225Z,2.9
2018-09-02T14:33:31.359Z,3.0
2018-09-02T14:34:31.235Z,3.0
2018-09-02T14:35:31.277Z,2.8
2018-09-02T14:36:31.842Z,3.1
2018-09-02T14:37:31.240Z,2.9
2018-09-02T14:38:31.512Z,2.8
2018-09-02T14:39:31.820Z,3.1
2018-09-02T14:40:31.235Z,2.9
2018-09-02T14:41:31.243Z,2.8
2018-09-02T14:42:31.282Z,3.1
2018-09-02T14:43:31.535Z,2.8
2018-09-02T14:44:31.213Z,2.7
2018-09-02T14:45:31.279Z,2.9
2018-09-02T14:46:31.188Z,2.9
2018-09-02T14:47:31.251Z,2.8
2018-09-02T14:48:31.200Z,3.0
2018-09-02T15:00:34.028Z,10.3
2018-09-02T15:01:33.687Z,2.6
2018-09-02T15:03:33.976Z,2.5
2018-09-02T15:04:33.779Z,16.8
2018-09-02T15:05:33.947Z,2.7
2018-09-02T15:06:33.822Z,2.7
2018-09-02T15:07:33.704Z,2.3
2018-09-02T15:08:34.938Z,2.7
2018-09-02T15:09:33.764Z,2.7
2018-09-02T15:13:52.440Z,2.7
2018-09-02T15:14:18.707Z,2.7
2018-09-02T15:15:19.647Z,6.0
2018-09-02T15:16:19.724Z,2.8
2018-09-02T15:17:19.733Z,2.4
2018-09-02T15:18:19.690Z,2.6
2018-09-02T15:19:19.713Z,2.7
2018-09-02T15:20:19.683Z,2.5
2018-09-02T15:21:19.817Z,2.7
2018-09-02T15:22:19.774Z,2.6
2018-09-02T15:23:19.724Z,2.8
2018-09-02T15:24:19.826Z,2.5
2018-09-02T15:25:19.799Z,2.5
2018-09-02T15:26:20.005Z,2.7
2018-09-02T15:27:20.418Z,2.6
2018-09-02T15:28:20.000Z,2.6
2018-09-02T15:29:19.738Z,2.4
2018-09-02T15:31:20.032Z,2.4
2018-09-02T15:32:19.759Z,2.5
2018-09-02T15:33:19.722Z,2.6
2018-09-02T15:34:19.807Z,2.9
2018-09-02T15:35:19.795Z,2.8
2018-09-02T15:36:19.784Z,2.7
2018-09-02T15:37:19.744Z,2.7
2018-09-02T15:38:19.752Z,2.9
2018-09-02T15:40:19.809Z,3.0
2018-09-02T15:41:19.678Z,2.8
2018-09-02T15:42:19.728Z,2.8
2018-09-02T15:43:20.029Z,2.9